sensor_id;sensor_type;location;lat;lon;timestamp;temperature;humidity
15969;DHT22;8085;53.472;9.794;2022-09-09T00:02:20;14.30;99.90
15969;DHT22;8085;53.472;9.794;2022-09-09T00:04:54;14.30;99.90
15969;DHT22;8085;53.472;9.794;2022-09-09T00:07:34;14.40;99.90
15969;DHT22;8085;53.472;9.794;2022-09-09T00:10:13;14.40;99.90
15969;DHT22;8085;53.472;9.794;2022-09-09T00:12:50;14.40;99.90
15969;DHT22;8085;53.472;9.794;2022-09-09T00:15:23;14.40;99.90
15969;DHT22;8085;53.472;9.794;2022-09-09T00:18:01;14.40;99.90
15969;DHT22;8085;53.472;9.794;2022-09-09T00:20:32;14.40;99.90
15969;DHT22;8085;53.472;9.794;2022-09-09T00:23:21;14.40;99.90
15969;DHT22;8085;53.472;9.794;2022-09-09T00:25:57;14.40;99.90
15969;DHT22;8085;53.472;9.794;2022-09-09T00:28:26;14.50;99.90
15969;DHT22;8085;53.472;9.794;2022-09-09T00:30:55;14.40;99.90
15969;DHT22;8085;53.472;9.794;2022-09-09T00:33:25;14.50;99.90
15969;DHT22;8085;53.472;9.794;2022-09-09T00:35:56;14.40;99.90
15969;DHT22;8085;53.472;9.794;2022-09-09T00:38:27;14.50;99.90
15969;DHT22;8085;53.472;9.794;2022-09-09T00:41:00;14.50;99.90
15969;DHT22;8085;53.472;9.794;2022-09-09T00:43:30;14.50;99.90
15969;DHT22;8085;53.472;9.794;2022-09-09T00:46:24;14.50;99.90
15969;DHT22;8085;53.472;9.794;2022-09-09T00:49:04;14.40;99.90
15969;DHT22;8085;53.472;9.794;2022-09-09T00:51:45;14.30;99.90
15969;DHT22;8085;53.472;9.794;2022-09-09T00:54:35;14.30;99.90
15969;DHT22;8085;53.472;9.794;2022-09-09T00:57:13;14.20;99.90
15969;DHT22;8085;53.472;9.794;2022-09-09T00:59:46;14.10;99.90
15969;DHT22;8085;53.472;9.794;2022-09-09T01:02:21;14.10;99.90
15969;DHT22;8085;53.472;9.794;2022-09-09T01:04:53;14.00;99.90
15969;DHT22;8085;53.472;9.794;2022-09-09T01:07:21;14.00;99.90
15969;DHT22;8085;53.472;9.794;2022-09-09T01:09:54;13.90;99.90
15969;DHT22;8085;53.472;9.794;2022-09-09T01:12:40;13.90;99.90
15969;DHT22;8085;53.472;9.794;2022-09-09T01:15:11;13.90;99.90
15969;DHT22;8085;53.472;9.794;2022-09-09T01:17:46;13.80;99.90
15969;DHT22;8085;53.472;9.794;2022-09-09T01:20:19;13.80;99.90
15969;DHT22;8085;53.472;9.794;2022-09-09T01:22:57;13.70;99.90
15969;DHT22;8085;53.472;9.794;2022-09-09T01:25:56;13.60;99.90
15969;DHT22;8085;53.472;9.794;2022-09-09T01:28:27;13.60;99.90
15969;DHT22;8085;53.472;9.794;2022-09-09T01:30:55;13.60;99.90
15969;DHT22;8085;53.472;9.794;2022-09-09T01:33:23;13.60;99.90
15969;DHT22;8085;53.472;9.794;2022-09-09T01:35:52;13.50;99.90
15969;DHT22;8085;53.472;9.794;2022-09-09T01:38:21;13.40;99.90
15969;DHT22;8085;53.472;9.794;2022-09-09T01:40:50;13.30;99.90
15969;DHT22;8085;53.472;9.794;2022-09-09T01:43:18;13.40;99.90
15969;DHT22;8085;53.472;9.794;2022-09-09T01:45:46;13.40;99.90
15969;DHT22;8085;53.472;9.794;2022-09-09T01:48:15;13.40;99.90
15969;DHT22;8085;53.472;9.794;2022-09-09T01:50:43;13.30;99.90
15969;DHT22;8085;53.472;9.794;2022-09-09T01:53:11;13.20;99.90
15969;DHT22;8085;53.472;9.794;2022-09-09T01:55:41;13.20;99.90
15969;DHT22;8085;53.472;9.794;2022-09-09T01:58:22;13.20;99.90
15969;DHT22;8085;53.472;9.794;2022-09-09T02:01:01;13.10;99.90
15969;DHT22;8085;53.472;9.794;2022-09-09T02:03:29;13.10;99.90
15969;DHT22;8085;53.472;9.794;2022-09-09T02:06:05;13.10;99.90
15969;DHT22;8085;53.472;9.794;2022-09-09T02:08:40;13.10;99.90
15969;DHT22;8085;53.472;9.794;2022-09-09T02:11:12;13.00;99.90
15969;DHT22;8085;53.472;9.794;2022-09-09T02:13:43;13.00;99.90
15969;DHT22;8085;53.472;9.794;2022-09-09T02:16:14;13.00;99.90
15969;DHT22;8085;53.472;9.794;2022-09-09T02:18:46;13.00;99.90
15969;DHT22;8085;53.472;9.794;2022-09-09T02:21:14;13.10;99.90
15969;DHT22;8085;53.472;9.794;2022-09-09T02:23:43;13.10;99.90
15969;DHT22;8085;53.472;9.794;2022-09-09T02:26:13;13.20;99.90
15969;DHT22;8085;53.472;9.794;2022-09-09T02:28:47;13.20;99.90
15969;DHT22;8085;53.472;9.794;2022-09-09T02:31:17;13.20;99.90
15969;DHT22;8085;53.472;9.794;2022-09-09T02:33:49;13.30;99.90
15969;DHT22;8085;53.472;9.794;2022-09-09T02:36:19;13.20;99.90
15969;DHT22;8085;53.472;9.794;2022-09-09T02:38:48;13.30;99.90
15969;DHT22;8085;53.472;9.794;2022-09-09T02:41:26;13.30;99.90
15969;DHT22;8085;53.472;9.794;2022-09-09T02:43:56;13.40;99.90
15969;DHT22;8085;53.472;9.794;2022-09-09T02:46:34;13.40;99.90
15969;DHT22;8085;53.472;9.794;2022-09-09T02:49:08;13.40;99.90
15969;DHT22;8085;53.472;9.794;2022-09-09T02:51:40;13.30;99.90
15969;DHT22;8085;53.472;9.794;2022-09-09T02:54:20;13.30;99.90
15969;DHT22;8085;53.472;9.794;2022-09-09T02:56:52;13.20;99.90
15969;DHT22;8085;53.472;9.794;2022-09-09T02:59:21;13.30;99.90
15969;DHT22;8085;53.472;9.794;2022-09-09T03:01:49;13.20;99.90
15969;DHT22;8085;53.472;9.794;2022-09-09T03:04:16;13.10;99.90
15969;DHT22;8085;53.472;9.794;2022-09-09T03:06:43;13.10;99.90
15969;DHT22;8085;53.472;9.794;2022-09-09T03:09:10;13.10;99.90
15969;DHT22;8085;53.472;9.794;2022-09-09T03:11:37;13.10;99.90
15969;DHT22;8085;53.472;9.794;2022-09-09T03:14:04;13.10;99.90
15969;DHT22;8085;53.472;9.794;2022-09-09T03:16:33;13.10;99.90
15969;DHT22;8085;53.472;9.794;2022-09-09T03:19:00;13.10;99.90
15969;DHT22;8085;53.472;9.794;2022-09-09T03:21:27;13.10;99.90
15969;DHT22;8085;53.472;9.794;2022-09-09T03:23:53;13.10;99.90
15969;DHT22;8085;53.472;9.794;2022-09-09T03:26:21;13.00;99.90
15969;DHT22;8085;53.472;9.794;2022-09-09T03:28:48;13.00;99.90
15969;DHT22;8085;53.472;9.794;2022-09-09T03:31:17;13.00;99.90
15969;DHT22;8085;53.472;9.794;2022-09-09T03:33:46;13.00;99.90
15969;DHT22;8085;53.472;9.794;2022-09-09T03:36:13;13.00;99.90
15969;DHT22;8085;53.472;9.794;2022-09-09T03:38:40;13.10;99.90
15969;DHT22;8085;53.472;9.794;2022-09-09T03:41:07;13.10;99.90
15969;DHT22;8085;53.472;9.794;2022-09-09T03:43:34;13.10;99.90
15969;DHT22;8085;53.472;9.794;2022-09-09T03:46:02;13.20;99.90
15969;DHT22;8085;53.472;9.794;2022-09-09T03:48:29;13.10;99.90
15969;DHT22;8085;53.472;9.794;2022-09-09T03:50:58;13.10;99.90
15969;DHT22;8085;53.472;9.794;2022-09-09T03:53:27;13.10;99.90
15969;DHT22;8085;53.472;9.794;2022-09-09T03:55:55;13.10;99.90
15969;DHT22;8085;53.472;9.794;2022-09-09T03:58:26;13.10;99.90
15969;DHT22;8085;53.472;9.794;2022-09-09T04:00:54;13.20;99.90
15969;DHT22;8085;53.472;9.794;2022-09-09T04:03:22;13.10;99.90
15969;DHT22;8085;53.472;9.794;2022-09-09T04:05:50;13.10;99.90
15969;DHT22;8085;53.472;9.794;2022-09-09T04:08:19;13.10;99.90
15969;DHT22;8085;53.472;9.794;2022-09-09T04:10:47;13.10;99.90
15969;DHT22;8085;53.472;9.794;2022-09-09T04:13:14;13.10;99.90
15969;DHT22;8085;53.472;9.794;2022-09-09T04:16:17;13.10;99.90
15969;DHT22;8085;53.472;9.794;2022-09-09T04:18:46;13.20;99.90
15969;DHT22;8085;53.472;9.794;2022-09-09T04:21:13;13.10;99.90
15969;DHT22;8085;53.472;9.794;2022-09-09T04:23:42;13.10;99.90
15969;DHT22;8085;53.472;9.794;2022-09-09T04:26:09;13.10;99.90
15969;DHT22;8085;53.472;9.794;2022-09-09T04:28:36;13.10;99.90
15969;DHT22;8085;53.472;9.794;2022-09-09T04:31:05;13.10;99.90
15969;DHT22;8085;53.472;9.794;2022-09-09T04:33:32;13.20;99.90
15969;DHT22;8085;53.472;9.794;2022-09-09T04:35:59;13.20;99.90
15969;DHT22;8085;53.472;9.794;2022-09-09T04:38:26;13.20;99.90
15969;DHT22;8085;53.472;9.794;2022-09-09T04:40:54;13.20;99.90
15969;DHT22;8085;53.472;9.794;2022-09-09T04:43:21;13.20;99.90
15969;DHT22;8085;53.472;9.794;2022-09-09T04:45:51;13.20;99.90
15969;DHT22;8085;53.472;9.794;2022-09-09T04:48:18;13.20;99.90
15969;DHT22;8085;53.472;9.794;2022-09-09T04:50:54;13.30;99.90
15969;DHT22;8085;53.472;9.794;2022-09-09T04:53:21;13.20;99.90
15969;DHT22;8085;53.472;9.794;2022-09-09T04:55:48;13.20;99.90
15969;DHT22;8085;53.472;9.794;2022-09-09T04:58:16;13.20;99.90
15969;DHT22;8085;53.472;9.794;2022-09-09T05:00:43;13.20;99.90
15969;DHT22;8085;53.472;9.794;2022-09-09T05:03:10;13.20;99.90
15969;DHT22;8085;53.472;9.794;2022-09-09T05:05:38;13.20;99.90
15969;DHT22;8085;53.472;9.794;2022-09-09T05:08:06;13.20;99.90
15969;DHT22;8085;53.472;9.794;2022-09-09T05:10:36;13.20;99.90
15969;DHT22;8085;53.472;9.794;2022-09-09T05:13:03;13.20;99.90
15969;DHT22;8085;53.472;9.794;2022-09-09T05:15:32;13.20;99.90
15969;DHT22;8085;53.472;9.794;2022-09-09T05:17:59;13.20;99.90
15969;DHT22;8085;53.472;9.794;2022-09-09T05:20:27;13.10;99.90
15969;DHT22;8085;53.472;9.794;2022-09-09T05:22:54;13.20;99.90
15969;DHT22;8085;53.472;9.794;2022-09-09T05:25:22;13.20;99.90
15969;DHT22;8085;53.472;9.794;2022-09-09T05:27:51;13.30;99.90
15969;DHT22;8085;53.472;9.794;2022-09-09T05:30:22;13.30;99.90
15969;DHT22;8085;53.472;9.794;2022-09-09T05:33:18;13.40;99.90
15969;DHT22;8085;53.472;9.794;2022-09-09T05:35:45;13.60;99.90
15969;DHT22;8085;53.472;9.794;2022-09-09T05:38:12;13.60;99.90
15969;DHT22;8085;53.472;9.794;2022-09-09T05:40:47;13.70;99.90
15969;DHT22;8085;53.472;9.794;2022-09-09T05:43:15;13.80;99.90
15969;DHT22;8085;53.472;9.794;2022-09-09T05:45:42;13.80;99.90
15969;DHT22;8085;53.472;9.794;2022-09-09T05:48:09;13.80;99.90
15969;DHT22;8085;53.472;9.794;2022-09-09T05:50:37;13.90;99.90
15969;DHT22;8085;53.472;9.794;2022-09-09T05:53:04;13.90;99.90
15969;DHT22;8085;53.472;9.794;2022-09-09T05:55:31;13.90;99.90
15969;DHT22;8085;53.472;9.794;2022-09-09T05:57:58;13.90;99.90
15969;DHT22;8085;53.472;9.794;2022-09-09T06:00:25;13.90;99.90
15969;DHT22;8085;53.472;9.794;2022-09-09T06:02:52;13.90;99.90
15969;DHT22;8085;53.472;9.794;2022-09-09T06:05:19;13.90;99.90
15969;DHT22;8085;53.472;9.794;2022-09-09T06:07:47;14.00;99.90
15969;DHT22;8085;53.472;9.794;2022-09-09T06:10:14;14.00;99.90
15969;DHT22;8085;53.472;9.794;2022-09-09T06:12:43;14.00;99.90
15969;DHT22;8085;53.472;9.794;2022-09-09T06:15:10;14.00;99.90
15969;DHT22;8085;53.472;9.794;2022-09-09T06:17:37;14.00;99.90
15969;DHT22;8085;53.472;9.794;2022-09-09T06:20:05;14.00;99.90
15969;DHT22;8085;53.472;9.794;2022-09-09T06:22:32;14.00;99.90
15969;DHT22;8085;53.472;9.794;2022-09-09T06:25:00;14.10;99.90
15969;DHT22;8085;53.472;9.794;2022-09-09T06:27:27;14.10;99.90
15969;DHT22;8085;53.472;9.794;2022-09-09T06:29:55;14.10;99.90
15969;DHT22;8085;53.472;9.794;2022-09-09T06:32:22;14.20;99.90
15969;DHT22;8085;53.472;9.794;2022-09-09T06:34:49;14.20;99.90
15969;DHT22;8085;53.472;9.794;2022-09-09T06:37:16;14.20;99.90
15969;DHT22;8085;53.472;9.794;2022-09-09T06:39:42;14.30;99.90
15969;DHT22;8085;53.472;9.794;2022-09-09T06:42:11;14.30;99.90
15969;DHT22;8085;53.472;9.794;2022-09-09T06:44:37;14.30;99.90
15969;DHT22;8085;53.472;9.794;2022-09-09T06:47:04;14.30;99.90
15969;DHT22;8085;53.472;9.794;2022-09-09T06:49:47;14.40;99.90
15969;DHT22;8085;53.472;9.794;2022-09-09T06:52:14;14.40;99.90
15969;DHT22;8085;53.472;9.794;2022-09-09T06:54:43;14.50;99.90
15969;DHT22;8085;53.472;9.794;2022-09-09T06:57:12;14.50;99.90
15969;DHT22;8085;53.472;9.794;2022-09-09T06:59:39;14.50;99.90
15969;DHT22;8085;53.472;9.794;2022-09-09T07:02:07;14.50;99.90
15969;DHT22;8085;53.472;9.794;2022-09-09T07:04:34;14.60;99.90
15969;DHT22;8085;53.472;9.794;2022-09-09T07:07:00;14.60;99.90
15969;DHT22;8085;53.472;9.794;2022-09-09T07:09:28;14.70;99.90
15969;DHT22;8085;53.472;9.794;2022-09-09T07:11:55;14.70;99.90
15969;DHT22;8085;53.472;9.794;2022-09-09T07:14:26;14.80;99.90
15969;DHT22;8085;53.472;9.794;2022-09-09T07:16:53;14.90;99.90
15969;DHT22;8085;53.472;9.794;2022-09-09T07:19:19;14.90;99.90
15969;DHT22;8085;53.472;9.794;2022-09-09T07:21:46;15.00;99.90
15969;DHT22;8085;53.472;9.794;2022-09-09T07:24:13;15.00;99.90
15969;DHT22;8085;53.472;9.794;2022-09-09T07:26:41;15.10;99.90
15969;DHT22;8085;53.472;9.794;2022-09-09T07:29:09;15.10;99.90
15969;DHT22;8085;53.472;9.794;2022-09-09T07:31:41;15.10;99.90
15969;DHT22;8085;53.472;9.794;2022-09-09T07:34:08;15.10;99.90
15969;DHT22;8085;53.472;9.794;2022-09-09T07:36:37;15.20;99.90
15969;DHT22;8085;53.472;9.794;2022-09-09T07:39:06;15.30;99.90
15969;DHT22;8085;53.472;9.794;2022-09-09T07:41:35;15.50;99.90
15969;DHT22;8085;53.472;9.794;2022-09-09T07:44:07;15.60;99.90
15969;DHT22;8085;53.472;9.794;2022-09-09T07:46:34;15.90;99.90
15969;DHT22;8085;53.472;9.794;2022-09-09T07:49:03;16.10;99.90
15969;DHT22;8085;53.472;9.794;2022-09-09T07:51:33;16.30;99.90
15969;DHT22;8085;53.472;9.794;2022-09-09T07:54:04;16.40;99.90
15969;DHT22;8085;53.472;9.794;2022-09-09T07:56:31;16.50;99.90
15969;DHT22;8085;53.472;9.794;2022-09-09T07:58:59;16.50;99.90
15969;DHT22;8085;53.472;9.794;2022-09-09T08:01:28;16.70;99.90
15969;DHT22;8085;53.472;9.794;2022-09-09T08:03:57;16.90;99.90
15969;DHT22;8085;53.472;9.794;2022-09-09T08:06:30;17.10;99.90
15969;DHT22;8085;53.472;9.794;2022-09-09T08:08:57;17.20;99.90
15969;DHT22;8085;53.472;9.794;2022-09-09T08:11:26;17.20;99.90
15969;DHT22;8085;53.472;9.794;2022-09-09T08:13:54;17.20;99.90
15969;DHT22;8085;53.472;9.794;2022-09-09T08:16:23;17.10;99.90
15969;DHT22;8085;53.472;9.794;2022-09-09T08:18:51;17.00;99.90
15969;DHT22;8085;53.472;9.794;2022-09-09T08:21:21;16.90;99.90
15969;DHT22;8085;53.472;9.794;2022-09-09T08:23:51;16.90;99.90
15969;DHT22;8085;53.472;9.794;2022-09-09T08:26:20;16.80;99.90
15969;DHT22;8085;53.472;9.794;2022-09-09T08:28:49;16.80;99.90
15969;DHT22;8085;53.472;9.794;2022-09-09T08:31:18;16.80;99.90
15969;DHT22;8085;53.472;9.794;2022-09-09T08:33:46;16.90;99.90
15969;DHT22;8085;53.472;9.794;2022-09-09T08:36:16;17.00;99.90
15969;DHT22;8085;53.472;9.794;2022-09-09T08:38:46;17.20;99.90
15969;DHT22;8085;53.472;9.794;2022-09-09T08:41:39;17.50;99.90
15969;DHT22;8085;53.472;9.794;2022-09-09T08:44:09;17.80;99.90
15969;DHT22;8085;53.472;9.794;2022-09-09T08:47:04;18.20;99.90
15969;DHT22;8085;53.472;9.794;2022-09-09T08:49:58;18.80;99.90
15969;DHT22;8085;53.472;9.794;2022-09-09T08:52:29;19.40;99.90
15969;DHT22;8085;53.472;9.794;2022-09-09T08:55:02;20.10;99.90
15969;DHT22;8085;53.472;9.794;2022-09-09T08:57:32;20.30;99.90
15969;DHT22;8085;53.472;9.794;2022-09-09T09:00:00;20.90;97.00
15969;DHT22;8085;53.472;9.794;2022-09-09T09:02:32;21.00;89.10
15969;DHT22;8085;53.472;9.794;2022-09-09T09:05:09;20.70;93.10
15969;DHT22;8085;53.472;9.794;2022-09-09T09:07:48;20.30;93.10
15969;DHT22;8085;53.472;9.794;2022-09-09T09:10:28;19.90;99.20
15969;DHT22;8085;53.472;9.794;2022-09-09T09:13:00;19.50;99.90
15969;DHT22;8085;53.472;9.794;2022-09-09T09:15:31;19.40;99.90
15969;DHT22;8085;53.472;9.794;2022-09-09T09:18:02;19.20;99.90
15969;DHT22;8085;53.472;9.794;2022-09-09T09:20:38;19.00;99.90
15969;DHT22;8085;53.472;9.794;2022-09-09T09:23:21;18.90;99.90
15969;DHT22;8085;53.472;9.794;2022-09-09T09:26:00;19.00;99.90
15969;DHT22;8085;53.472;9.794;2022-09-09T09:28:30;19.40;99.90
15969;DHT22;8085;53.472;9.794;2022-09-09T09:31:01;20.10;99.90
15969;DHT22;8085;53.472;9.794;2022-09-09T09:33:34;20.70;94.70
15969;DHT22;8085;53.472;9.794;2022-09-09T09:36:04;20.80;77.50
15969;DHT22;8085;53.472;9.794;2022-09-09T09:38:34;21.20;78.20
15969;DHT22;8085;53.472;9.794;2022-09-09T09:41:02;21.40;1.00
15969;DHT22;8085;53.472;9.794;2022-09-09T09:43:32;21.50;1.00
15969;DHT22;8085;53.472;9.794;2022-09-09T09:46:02;21.80;1.00
15969;DHT22;8085;53.472;9.794;2022-09-09T09:48:30;21.90;1.00
15969;DHT22;8085;53.472;9.794;2022-09-09T09:50:59;21.50;1.00
15969;DHT22;8085;53.472;9.794;2022-09-09T09:53:29;20.90;1.00
15969;DHT22;8085;53.472;9.794;2022-09-09T09:55:59;20.30;1.00
15969;DHT22;8085;53.472;9.794;2022-09-09T09:58:27;20.10;1.00
15969;DHT22;8085;53.472;9.794;2022-09-09T10:00:59;20.60;1.00
15969;DHT22;8085;53.472;9.794;2022-09-09T10:03:27;22.30;1.00
15969;DHT22;8085;53.472;9.794;2022-09-09T10:05:55;23.20;1.00
15969;DHT22;8085;53.472;9.794;2022-09-09T10:08:24;23.80;1.00
15969;DHT22;8085;53.472;9.794;2022-09-09T10:11:06;24.00;28.90
15969;DHT22;8085;53.472;9.794;2022-09-09T10:13:43;23.80;1.00
15969;DHT22;8085;53.472;9.794;2022-09-09T10:16:29;24.00;1.00
15969;DHT22;8085;53.472;9.794;2022-09-09T10:18:59;24.80;1.00
15969;DHT22;8085;53.472;9.794;2022-09-09T10:21:47;25.00;1.00
15969;DHT22;8085;53.472;9.794;2022-09-09T10:24:47;24.70;99.90
15969;DHT22;8085;53.472;9.794;2022-09-09T10:27:20;25.00;1.00
15969;DHT22;8085;53.472;9.794;2022-09-09T10:30:01;24.70;1.00
15969;DHT22;8085;53.472;9.794;2022-09-09T10:32:40;23.50;1.00
15969;DHT22;8085;53.472;9.794;2022-09-09T10:35:16;22.60;1.00
15969;DHT22;8085;53.472;9.794;2022-09-09T10:38:08;22.80;1.00
15969;DHT22;8085;53.472;9.794;2022-09-09T10:40:39;23.00;1.00
15969;DHT22;8085;53.472;9.794;2022-09-09T10:43:15;22.40;1.00
15969;DHT22;8085;53.472;9.794;2022-09-09T10:45:52;22.10;1.00
15969;DHT22;8085;53.472;9.794;2022-09-09T10:48:31;22.40;1.00
15969;DHT22;8085;53.472;9.794;2022-09-09T10:51:12;22.90;1.00
15969;DHT22;8085;53.472;9.794;2022-09-09T10:53:52;23.30;1.00
15969;DHT22;8085;53.472;9.794;2022-09-09T10:56:21;23.20;1.00
15969;DHT22;8085;53.472;9.794;2022-09-09T10:58:52;22.50;1.00
15969;DHT22;8085;53.472;9.794;2022-09-09T11:01:23;22.20;1.00
15969;DHT22;8085;53.472;9.794;2022-09-09T11:03:55;21.90;1.00
15969;DHT22;8085;53.472;9.794;2022-09-09T11:06:30;21.80;1.00
15969;DHT22;8085;53.472;9.794;2022-09-09T11:09:01;22.00;1.00
15969;DHT22;8085;53.472;9.794;2022-09-09T11:11:32;22.40;1.00
15969;DHT22;8085;53.472;9.794;2022-09-09T11:14:03;22.70;1.00
15969;DHT22;8085;53.472;9.794;2022-09-09T11:16:44;22.70;1.00
15969;DHT22;8085;53.472;9.794;2022-09-09T11:22:31;22.40;1.00
15969;DHT22;8085;53.472;9.794;2022-09-09T11:25:03;22.20;1.00
15969;DHT22;8085;53.472;9.794;2022-09-09T11:27:40;21.90;1.00
15969;DHT22;8085;53.472;9.794;2022-09-09T11:30:18;21.80;1.00
15969;DHT22;8085;53.472;9.794;2022-09-09T11:36:23;22.30;1.00
15969;DHT22;8085;53.472;9.794;2022-09-09T11:38:57;22.50;1.00
15969;DHT22;8085;53.472;9.794;2022-09-09T11:41:34;22.40;1.00
15969;DHT22;8085;53.472;9.794;2022-09-09T11:44:11;22.10;1.00
15969;DHT22;8085;53.472;9.794;2022-09-09T11:46:49;22.30;1.00
15969;DHT22;8085;53.472;9.794;2022-09-09T11:52:42;22.50;1.00
15969;DHT22;8085;53.472;9.794;2022-09-09T11:55:26;22.60;1.00
15969;DHT22;8085;53.472;9.794;2022-09-09T11:57:58;23.30;1.00
15969;DHT22;8085;53.472;9.794;2022-09-09T12:00:34;23.90;1.00
15969;DHT22;8085;53.472;9.794;2022-09-09T12:03:03;23.90;1.00
15969;DHT22;8085;53.472;9.794;2022-09-09T12:05:38;23.50;99.90
15969;DHT22;8085;53.472;9.794;2022-09-09T12:08:07;23.10;1.00
15969;DHT22;8085;53.472;9.794;2022-09-09T12:10:39;23.20;1.00
15969;DHT22;8085;53.472;9.794;2022-09-09T12:13:17;23.50;99.90
15969;DHT22;8085;53.472;9.794;2022-09-09T12:15:49;23.50;1.00
15969;DHT22;8085;53.472;9.794;2022-09-09T12:18:24;23.20;99.90
15969;DHT22;8085;53.472;9.794;2022-09-09T12:21:31;23.00;1.00
15969;DHT22;8085;53.472;9.794;2022-09-09T12:24:05;22.80;99.90
15969;DHT22;8085;53.472;9.794;2022-09-09T12:26:37;22.80;1.00
15969;DHT22;8085;53.472;9.794;2022-09-09T12:29:21;22.60;1.00
15969;DHT22;8085;53.472;9.794;2022-09-09T12:32:00;22.40;1.00
15969;DHT22;8085;53.472;9.794;2022-09-09T12:34:34;22.30;1.00
15969;DHT22;8085;53.472;9.794;2022-09-09T12:37:06;22.20;1.00
15969;DHT22;8085;53.472;9.794;2022-09-09T12:39:42;22.10;1.00
15969;DHT22;8085;53.472;9.794;2022-09-09T12:42:18;22.10;1.00
15969;DHT22;8085;53.472;9.794;2022-09-09T12:44:52;21.90;1.00
15969;DHT22;8085;53.472;9.794;2022-09-09T12:47:20;21.60;1.00
15969;DHT22;8085;53.472;9.794;2022-09-09T12:49:48;21.30;1.00
15969;DHT22;8085;53.472;9.794;2022-09-09T12:52:21;21.10;1.00
15969;DHT22;8085;53.472;9.794;2022-09-09T12:54:50;20.90;1.00
15969;DHT22;8085;53.472;9.794;2022-09-09T12:57:22;20.80;1.00
15969;DHT22;8085;53.472;9.794;2022-09-09T12:59:51;20.70;1.00
15969;DHT22;8085;53.472;9.794;2022-09-09T13:02:20;20.60;1.00
15969;DHT22;8085;53.472;9.794;2022-09-09T13:04:48;20.60;1.00
15969;DHT22;8085;53.472;9.794;2022-09-09T13:07:16;20.50;1.00
15969;DHT22;8085;53.472;9.794;2022-09-09T13:13:35;20.30;1.10
15969;DHT22;8085;53.472;9.794;2022-09-09T13:16:04;19.90;1.00
15969;DHT22;8085;53.472;9.794;2022-09-09T13:18:36;19.70;1.00
15969;DHT22;8085;53.472;9.794;2022-09-09T13:21:04;19.50;1.00
15969;DHT22;8085;53.472;9.794;2022-09-09T13:23:32;19.20;1.00
15969;DHT22;8085;53.472;9.794;2022-09-09T13:26:04;19.00;17.40
15969;DHT22;8085;53.472;9.794;2022-09-09T13:28:34;18.80;40.10
15969;DHT22;8085;53.472;9.794;2022-09-09T13:31:05;18.60;60.80
15969;DHT22;8085;53.472;9.794;2022-09-09T13:33:34;18.40;83.00
15969;DHT22;8085;53.472;9.794;2022-09-09T13:36:04;18.20;93.60
15969;DHT22;8085;53.472;9.794;2022-09-09T13:38:33;18.10;99.90
15969;DHT22;8085;53.472;9.794;2022-09-09T13:41:04;17.90;99.90
15969;DHT22;8085;53.472;9.794;2022-09-09T13:43:37;17.80;99.90
15969;DHT22;8085;53.472;9.794;2022-09-09T13:46:21;17.70;99.90
15969;DHT22;8085;53.472;9.794;2022-09-09T13:48:54;17.50;99.90
15969;DHT22;8085;53.472;9.794;2022-09-09T13:51:32;17.40;99.90
15969;DHT22;8085;53.472;9.794;2022-09-09T13:53:59;17.30;99.90
15969;DHT22;8085;53.472;9.794;2022-09-09T13:56:26;17.30;99.90
15969;DHT22;8085;53.472;9.794;2022-09-09T13:58:55;17.20;99.90
15969;DHT22;8085;53.472;9.794;2022-09-09T14:01:23;17.20;99.90
15969;DHT22;8085;53.472;9.794;2022-09-09T14:03:50;17.10;99.90
15969;DHT22;8085;53.472;9.794;2022-09-09T14:06:18;17.10;99.90
15969;DHT22;8085;53.472;9.794;2022-09-09T14:08:47;17.00;99.90
15969;DHT22;8085;53.472;9.794;2022-09-09T14:11:16;16.90;99.90
15969;DHT22;8085;53.472;9.794;2022-09-09T14:13:44;16.90;99.90
15969;DHT22;8085;53.472;9.794;2022-09-09T14:16:12;16.80;99.90
15969;DHT22;8085;53.472;9.794;2022-09-09T14:18:40;16.80;99.90
15969;DHT22;8085;53.472;9.794;2022-09-09T14:21:07;16.80;99.90
15969;DHT22;8085;53.472;9.794;2022-09-09T14:27:57;16.70;99.90
15969;DHT22;8085;53.472;9.794;2022-09-09T14:30:39;16.60;99.90
15969;DHT22;8085;53.472;9.794;2022-09-09T14:33:40;16.60;99.90
15969;DHT22;8085;53.472;9.794;2022-09-09T14:36:09;16.50;99.90
15969;DHT22;8085;53.472;9.794;2022-09-09T14:38:37;16.60;99.90
15969;DHT22;8085;53.472;9.794;2022-09-09T14:41:05;16.50;99.90
15969;DHT22;8085;53.472;9.794;2022-09-09T14:43:32;16.60;99.90
15969;DHT22;8085;53.472;9.794;2022-09-09T14:46:04;16.50;99.90
15969;DHT22;8085;53.472;9.794;2022-09-09T14:48:34;16.50;99.90
15969;DHT22;8085;53.472;9.794;2022-09-09T14:51:07;16.50;99.90
15969;DHT22;8085;53.472;9.794;2022-09-09T14:53:34;16.50;99.90
15969;DHT22;8085;53.472;9.794;2022-09-09T14:56:06;16.50;99.90
15969;DHT22;8085;53.472;9.794;2022-09-09T14:58:34;16.60;99.90
15969;DHT22;8085;53.472;9.794;2022-09-09T15:01:03;16.70;99.90
15969;DHT22;8085;53.472;9.794;2022-09-09T15:03:30;16.80;99.90
15969;DHT22;8085;53.472;9.794;2022-09-09T15:05:57;16.80;99.90
15969;DHT22;8085;53.472;9.794;2022-09-09T15:08:26;16.90;99.90
15969;DHT22;8085;53.472;9.794;2022-09-09T15:10:59;17.00;99.90
15969;DHT22;8085;53.472;9.794;2022-09-09T15:13:31;17.00;99.90
15969;DHT22;8085;53.472;9.794;2022-09-09T15:16:04;17.10;99.90
15969;DHT22;8085;53.472;9.794;2022-09-09T15:18:31;17.10;99.90
15969;DHT22;8085;53.472;9.794;2022-09-09T15:20:58;17.20;99.90
15969;DHT22;8085;53.472;9.794;2022-09-09T15:23:28;17.20;99.90
15969;DHT22;8085;53.472;9.794;2022-09-09T15:25:55;17.30;99.90
15969;DHT22;8085;53.472;9.794;2022-09-09T15:28:23;17.30;99.90
15969;DHT22;8085;53.472;9.794;2022-09-09T15:30:51;17.30;99.90
15969;DHT22;8085;53.472;9.794;2022-09-09T15:33:18;17.40;99.90
15969;DHT22;8085;53.472;9.794;2022-09-09T15:35:45;17.40;99.90
15969;DHT22;8085;53.472;9.794;2022-09-09T15:38:12;17.40;99.90
15969;DHT22;8085;53.472;9.794;2022-09-09T15:40:42;17.50;99.90
15969;DHT22;8085;53.472;9.794;2022-09-09T15:43:12;17.50;99.90
15969;DHT22;8085;53.472;9.794;2022-09-09T15:45:54;17.50;99.90
15969;DHT22;8085;53.472;9.794;2022-09-09T15:48:30;17.60;99.90
15969;DHT22;8085;53.472;9.794;2022-09-09T15:51:02;17.70;99.90
15969;DHT22;8085;53.472;9.794;2022-09-09T15:53:30;17.80;99.90
15969;DHT22;8085;53.472;9.794;2022-09-09T15:55:59;17.80;99.90
15969;DHT22;8085;53.472;9.794;2022-09-09T15:58:29;17.90;99.90
15969;DHT22;8085;53.472;9.794;2022-09-09T16:01:01;17.90;99.90
15969;DHT22;8085;53.472;9.794;2022-09-09T16:03:29;17.90;99.90
15969;DHT22;8085;53.472;9.794;2022-09-09T16:05:57;17.90;99.90
15969;DHT22;8085;53.472;9.794;2022-09-09T16:08:24;17.90;99.90
15969;DHT22;8085;53.472;9.794;2022-09-09T16:10:51;18.00;99.10
15969;DHT22;8085;53.472;9.794;2022-09-09T16:13:19;18.00;95.40
15969;DHT22;8085;53.472;9.794;2022-09-09T16:15:53;17.90;99.20
15969;DHT22;8085;53.472;9.794;2022-09-09T16:18:20;17.90;98.50
15969;DHT22;8085;53.472;9.794;2022-09-09T16:20:54;17.70;99.90
15969;DHT22;8085;53.472;9.794;2022-09-09T16:23:23;17.70;93.70
15969;DHT22;8085;53.472;9.794;2022-09-09T16:25:53;17.50;91.10
15969;DHT22;8085;53.472;9.794;2022-09-09T16:28:22;17.40;90.20
15969;DHT22;8085;53.472;9.794;2022-09-09T16:30:49;17.40;90.90
15969;DHT22;8085;53.472;9.794;2022-09-09T16:33:16;17.30;92.50
15969;DHT22;8085;53.472;9.794;2022-09-09T16:35:43;17.20;92.90